createdAt,value
2022-09-05T00:00:17.522Z,844
2022-09-05T00:02:17.844Z,907
2022-09-05T00:04:24.890Z,945
2022-09-05T00:06:17.890Z,807
2022-09-05T00:08:17.644Z,905
2022-09-05T00:10:17.433Z,897
2022-09-05T00:12:17.523Z,923
2022-09-05T00:14:34.105Z,838
2022-09-05T00:16:17.653Z,855
2022-09-05T00:19:30.552Z,815
2022-09-05T00:23:15.488Z,933
2022-09-05T00:24:23.534Z,863
2022-09-05T00:24:33.562Z,880
2022-09-05T00:26:17.884Z,885
2022-09-05T00:28:26.441Z,883
2022-09-05T00:31:03.989Z,886
2022-09-05T00:32:18.354Z,965
2022-09-05T00:34:18.177Z,943
2022-09-05T00:36:18.153Z,894
2022-09-05T00:38:18.004Z,825
2022-09-05T00:40:18.965Z,959
2022-09-05T00:42:17.891Z,844
2022-09-05T00:44:17.683Z,840
2022-09-05T00:46:17.595Z,966
2022-09-05T00:48:17.709Z,970
2022-09-05T00:50:17.519Z,897
2022-09-05T00:52:17.455Z,843
2022-09-05T00:54:17.536Z,942
2022-09-05T00:56:17.574Z,819
2022-09-05T00:58:17.411Z,896
2022-09-05T01:00:18.520Z,876
2022-09-05T01:02:18.482Z,870
2022-09-05T01:04:17.399Z,908
2022-09-05T01:06:18.302Z,911
2022-09-05T01:08:18.036Z,949
2022-09-05T01:10:17.801Z,939
2022-09-05T01:12:17.717Z,979
2022-09-05T01:14:17.438Z,932
2022-09-05T01:16:18.241Z,930
2022-09-05T01:18:18.261Z,884
2022-09-05T01:20:18.707Z,805
2022-09-05T01:22:18.157Z,839
2022-09-05T01:24:17.947Z,910
2022-09-05T01:26:17.868Z,820
2022-09-05T01:28:43.284Z,952
2022-09-05T01:30:17.478Z,931
2022-09-05T01:32:17.395Z,931
2022-09-05T01:34:18.172Z,786
2022-09-05T01:36:17.971Z,901
2022-09-05T01:38:17.603Z,926
2022-09-05T01:40:17.515Z,828
2022-09-05T01:42:17.562Z,917
2022-09-05T01:44:18.359Z,856
2022-09-05T01:46:18.294Z,913
2022-09-05T01:48:18.159Z,746
2022-09-05T01:50:18.284Z,859
2022-09-05T01:52:17.897Z,847
2022-09-05T01:54:23.538Z,847
2022-09-05T01:56:18.270Z,807
2022-09-05T01:58:18.107Z,863
2022-09-05T02:00:17.890Z,914
2022-09-05T02:02:17.782Z,894
2022-09-05T02:04:17.546Z,933
2022-09-05T02:06:17.465Z,859
2022-09-05T02:08:17.365Z,874
2022-09-05T02:10:18.160Z,959
2022-09-05T02:12:18.177Z,806
2022-09-05T02:14:24.460Z,805
2022-09-05T02:16:17.948Z,940
2022-09-05T02:18:17.914Z,868
2022-09-05T02:20:20.800Z,859
2022-09-05T02:22:17.653Z,873
2022-09-05T02:24:17.412Z,836
2022-09-05T02:26:18.324Z,859
2022-09-05T02:28:18.018Z,880
2022-09-05T02:30:17.872Z,800
2022-09-05T02:32:17.789Z,842
2022-09-05T02:34:17.664Z,948
2022-09-05T02:36:17.492Z,833
2022-09-05T02:39:07.576Z,819
2022-09-05T02:42:30.503Z,834
2022-09-05T02:45:05.192Z,898
2022-09-05T02:45:15.768Z,909
2022-09-05T02:46:18.405Z,868
2022-09-05T02:48:18.163Z,898
2022-09-05T02:51:47.446Z,806
2022-09-05T02:53:57.846Z,860
2022-09-05T02:57:32.473Z,798
2022-09-05T02:57:32.503Z,911
2022-09-05T02:58:18.071Z,879
2022-09-05T03:00:18.016Z,735
2022-09-05T03:02:19.675Z,771
2022-09-05T03:04:18.325Z,831
2022-09-05T03:06:25.981Z,830
2022-09-05T03:08:17.334Z,843
2022-09-05T03:10:18.139Z,831
2022-09-05T03:12:27.134Z,730
2022-09-05T03:14:18.167Z,845
2022-09-05T03:16:17.969Z,800
2022-09-05T03:18:19.882Z,913
2022-09-05T03:20:18.109Z,845
2022-09-05T03:22:17.868Z,883
2022-09-05T03:24:17.369Z,763
2022-09-05T03:26:18.057Z,862
2022-09-05T03:28:17.858Z,887
2022-09-05T03:30:17.706Z,852
2022-09-05T03:32:17.567Z,808
2022-09-05T03:34:17.384Z,816
2022-09-05T03:36:19.115Z,871
2022-09-05T03:38:19.207Z,880
2022-09-05T03:40:18.081Z,832
2022-09-05T03:42:17.892Z,873
2022-09-05T03:44:17.926Z,864
2022-09-05T03:46:17.742Z,899
2022-09-05T03:48:23.091Z,869
2022-09-05T03:52:56.375Z,799
2022-09-05T03:55:23.656Z,831
2022-09-05T03:57:09.281Z,877
2022-09-05T03:57:21.753Z,803
2022-09-05T03:58:18.290Z,876
2022-09-05T04:00:18.169Z,781
2022-09-05T04:04:37.951Z,761
2022-09-05T04:08:06.036Z,827
2022-09-05T04:08:12.421Z,856
2022-09-05T04:08:32.911Z,852
2022-09-05T04:10:18.368Z,793
2022-09-05T04:12:18.165Z,844
2022-09-05T04:14:18.051Z,770
2022-09-05T04:16:17.858Z,880
2022-09-05T04:18:17.770Z,809
2022-09-05T04:20:17.501Z,840
2022-09-05T04:22:18.288Z,839
2022-09-05T04:24:18.179Z,880
2022-09-05T04:26:17.571Z,801
2022-09-05T04:28:19.155Z,885
2022-09-05T04:30:39.202Z,878
2022-09-05T04:32:19.305Z,822
2022-09-05T04:34:17.398Z,815
2022-09-05T04:36:18.013Z,931
2022-09-05T04:38:17.442Z,786
2022-09-05T04:40:18.292Z,826
2022-09-05T04:42:18.100Z,896
2022-09-05T04:44:17.878Z,896
2022-09-05T04:46:19.081Z,766
2022-09-05T04:48:20.866Z,867
2022-09-05T04:50:19.444Z,934
2022-09-05T04:52:21.927Z,847
2022-09-05T04:54:17.844Z,867
2022-09-05T04:56:17.693Z,796
2022-09-05T04:58:20.361Z,854
2022-09-05T05:01:32.485Z,828
2022-09-05T05:06:06.623Z,847
2022-09-05T05:06:07.867Z,868
2022-09-05T05:06:44.334Z,844
2022-09-05T05:08:29.039Z,958
2022-09-05T05:11:04.553Z,852
2022-09-05T05:14:45.855Z,850
2022-09-05T05:18:04.461Z,859
2022-09-05T05:18:05.869Z,937
2022-09-05T05:18:39.014Z,827
2022-09-05T05:20:41.064Z,843
2022-09-05T05:22:17.388Z,873
2022-09-05T05:24:19.269Z,823
2022-09-05T05:26:17.827Z,821
2022-09-05T05:28:22.650Z,911
2022-09-05T05:30:17.588Z,863
2022-09-05T05:32:24.879Z,854
2022-09-05T05:34:23.844Z,864
2022-09-05T05:36:18.320Z,927
2022-09-05T05:38:18.138Z,822
2022-09-05T05:40:18.012Z,869
2022-09-05T05:42:20.419Z,897
2022-09-05T05:44:17.962Z,808
2022-09-05T05:46:17.842Z,854
2022-09-05T05:48:17.668Z,765
2022-09-05T05:50:22.744Z,856
2022-09-05T05:52:17.551Z,833
2022-09-05T05:54:18.390Z,766
2022-09-05T05:56:18.143Z,759
2022-09-05T05:58:17.966Z,820
2022-09-05T06:00:24.606Z,796
2022-09-05T06:02:17.802Z,704
2022-09-05T06:04:17.807Z,765
2022-09-05T06:06:17.639Z,768
2022-09-05T06:08:41.326Z,620
2022-09-05T06:13:22.636Z,625
2022-09-05T06:14:54.336Z,725
2022-09-05T06:15:03.266Z,749
2022-09-05T06:16:17.664Z,664
2022-09-05T06:18:17.641Z,614
2022-09-05T06:21:21.082Z,666
2022-09-05T06:22:20.672Z,638
2022-09-05T06:24:21.133Z,722
2022-09-05T06:26:18.080Z,651
2022-09-05T06:28:20.026Z,618
2022-09-05T06:30:17.934Z,745
2022-09-05T06:32:17.815Z,569
2022-09-05T06:34:29.051Z,709
2022-09-05T06:36:17.844Z,539
2022-09-05T06:38:18.328Z,605
2022-09-05T06:40:18.123Z,577
2022-09-05T06:42:28.482Z,607
2022-09-05T06:44:17.743Z,592
2022-09-05T06:46:55.514Z,603
2022-09-05T06:48:21.436Z,596
2022-09-05T06:50:24.732Z,614
2022-09-05T06:52:29.128Z,597
2022-09-05T06:54:18.421Z,679
2022-09-05T06:56:24.133Z,664
2022-09-05T06:58:17.954Z,628
2022-09-05T07:00:21.939Z,603
2022-09-05T07:02:18.210Z,578
2022-09-05T07:04:40.349Z,653
2022-09-05T07:06:19.895Z,651
2022-09-05T07:08:26.689Z,788
2022-09-05T07:10:37.212Z,628
2022-09-05T07:12:17.602Z,651
2022-09-05T07:14:17.345Z,683
2022-09-05T07:16:18.162Z,654
2022-09-05T07:18:18.332Z,688
2022-09-05T07:20:18.102Z,605
2022-09-05T07:22:18.598Z,648
2022-09-05T07:24:22.655Z,641
2022-09-05T07:26:20.498Z,749
2022-09-05T07:28:27.189Z,648
2022-09-05T07:30:17.832Z,710
2022-09-05T07:32:20.177Z,697
2022-09-05T07:34:20.549Z,690
2022-09-05T07:36:17.984Z,678
2022-09-05T07:38:17.750Z,681
2022-09-05T07:40:25.524Z,693
2022-09-05T07:42:17.647Z,680
2022-09-05T07:44:17.444Z,601
2022-09-05T07:46:17.866Z,723
2022-09-05T07:48:17.745Z,651
2022-09-05T07:50:45.833Z,713
2022-09-05T07:56:48.661Z,729
2022-09-05T07:56:48.794Z,671
2022-09-05T07:56:58.356Z,688
2022-09-05T07:58:18.300Z,724
2022-09-05T08:00:26.326Z,726
2022-09-05T08:02:18.008Z,688
2022-09-05T08:04:17.994Z,762
2022-09-05T08:06:25.999Z,646
2022-09-05T08:08:17.471Z,718
2022-09-05T08:10:17.910Z,815
2022-09-05T08:12:17.604Z,726
2022-09-05T08:14:38.482Z,686
2022-09-05T08:16:18.046Z,816
2022-09-05T08:18:18.317Z,706
2022-09-05T08:20:18.302Z,705
2022-09-05T08:22:17.536Z,692
2022-09-05T08:24:18.446Z,708
2022-09-05T08:26:17.643Z,650
2022-09-05T08:28:17.565Z,633
2022-09-05T08:30:25.404Z,727
2022-09-05T08:32:18.204Z,756
2022-09-05T08:34:18.041Z,738
2022-09-05T08:36:17.611Z,752
2022-09-05T08:38:17.760Z,717
2022-09-05T08:40:17.653Z,691
2022-09-05T08:42:17.513Z,684
2022-09-05T08:46:38.289Z,776
2022-09-05T08:46:38.594Z,677
2022-09-05T08:48:18.379Z,653
2022-09-05T08:50:18.212Z,698
2022-09-05T08:52:18.064Z,628
2022-09-05T08:54:17.859Z,707
2022-09-05T08:56:19.134Z,643
2022-09-05T08:58:18.201Z,734
2022-09-05T09:00:19.958Z,726
2022-09-05T09:02:45.792Z,726
2022-09-05T09:04:17.720Z,792
2022-09-05T09:06:17.402Z,736
2022-09-05T09:08:18.312Z,674
2022-09-05T09:10:22.696Z,691
2022-09-05T09:12:17.694Z,734
2022-09-05T09:14:29.534Z,675
2022-09-05T09:16:17.597Z,660
2022-09-05T09:18:17.834Z,660
2022-09-05T09:20:17.366Z,701
2022-09-05T09:22:17.676Z,744
2022-09-05T09:24:17.853Z,705
2022-09-05T09:26:17.668Z,710
2022-09-05T09:28:40.819Z,694
2022-09-05T09:30:17.333Z,710
2022-09-05T09:32:17.724Z,651
2022-09-05T09:34:17.479Z,715
2022-09-05T09:36:18.284Z,635
2022-09-05T09:38:23.206Z,691
2022-09-05T09:40:17.699Z,646
2022-09-05T09:42:32.188Z,679
2022-09-05T09:44:17.819Z,679
2022-09-05T09:46:17.575Z,655
2022-09-05T09:48:22.430Z,680
2022-09-05T09:50:18.214Z,687
2022-09-05T09:52:19.549Z,764
2022-09-05T09:54:17.576Z,696
2022-09-05T09:56:17.480Z,749
2022-09-05T09:58:17.298Z,712
2022-09-05T10:00:17.558Z,708
2022-09-05T10:02:21.977Z,651
2022-09-05T10:05:35.426Z,642
2022-09-05T10:10:37.309Z,772
2022-09-05T10:10:40.717Z,741
2022-09-05T10:10:40.946Z,703
2022-09-05T10:12:18.134Z,486
2022-09-05T10:14:26.186Z,653
2022-09-05T10:16:17.477Z,709
2022-09-05T10:18:19.688Z,715
2022-09-05T10:20:17.859Z,689
2022-09-05T10:24:17.443Z,638
2022-09-05T10:26:18.339Z,628
2022-09-05T10:28:18.092Z,689
2022-09-05T10:30:19.791Z,648
2022-09-05T10:33:06.663Z,666
2022-09-05T10:35:12.642Z,724
2022-09-05T10:36:17.906Z,638
2022-09-05T10:38:18.052Z,692
2022-09-05T10:40:18.265Z,642
2022-09-05T10:42:18.221Z,690
2022-09-05T10:44:18.005Z,802
2022-09-05T10:46:40.010Z,691
2022-09-05T10:48:17.950Z,732
2022-09-05T10:50:17.836Z,704
2022-09-05T10:52:19.132Z,702
2022-09-05T10:54:17.358Z,703
2022-09-05T10:56:18.091Z,713
2022-09-05T10:58:19.691Z,679
2022-09-05T11:01:50.000Z,794
2022-09-05T11:02:19.699Z,746
2022-09-05T11:04:17.964Z,682
2022-09-05T11:06:21.000Z,749
2022-09-05T11:08:17.945Z,804
2022-09-05T11:10:17.739Z,746
2022-09-05T11:12:18.421Z,718
2022-09-05T11:14:26.853Z,666
2022-09-05T11:16:18.102Z,737
2022-09-05T11:18:18.266Z,783
2022-09-05T11:20:22.441Z,641
2022-09-05T11:22:22.348Z,716
2022-09-05T11:24:18.096Z,728
2022-09-05T11:26:18.252Z,734
2022-09-05T11:28:18.240Z,746
2022-09-05T11:30:20.293Z,766
2022-09-05T11:33:13.496Z,740
2022-09-05T11:38:56.628Z,700
2022-09-05T11:39:49.381Z,817
2022-09-05T11:39:49.705Z,760
2022-09-05T11:40:27.299Z,771
2022-09-05T11:42:18.131Z,752
2022-09-05T11:44:25.403Z,745
2022-09-05T11:46:18.367Z,712
2022-09-05T11:48:18.371Z,792
2022-09-05T11:50:17.439Z,814
2022-09-05T11:52:17.510Z,783
2022-09-05T11:54:18.289Z,800
2022-09-05T11:56:18.247Z,733
2022-09-05T11:58:27.113Z,750
2022-09-05T12:00:32.219Z,730
2022-09-05T12:02:23.510Z,721
2022-09-05T12:04:17.848Z,728
2022-09-05T12:06:17.642Z,687
2022-09-05T12:08:17.519Z,644
2022-09-05T12:12:19.330Z,703
2022-09-05T12:14:21.092Z,652
2022-09-05T12:16:17.337Z,678
2022-09-05T12:18:18.882Z,709
2022-09-05T12:20:21.988Z,665
2022-09-05T12:22:18.565Z,676
2022-09-05T12:24:36.704Z,683
2022-09-05T12:26:26.851Z,733
2022-09-05T12:28:28.682Z,729
2022-09-05T12:30:18.205Z,674
2022-09-05T12:33:02.229Z,750
2022-09-05T12:36:03.215Z,622
2022-09-05T12:38:44.694Z,699
2022-09-05T12:39:45.271Z,754
2022-09-05T12:40:43.711Z,664
2022-09-05T12:41:48.060Z,772
2022-09-05T12:42:23.993Z,728
2022-09-05T12:44:36.569Z,712
2022-09-05T12:46:19.283Z,689
2022-09-05T12:48:18.050Z,711
2022-09-05T12:50:17.725Z,602
2022-09-05T12:52:17.357Z,727
2022-09-05T12:54:24.465Z,769
2022-09-05T12:56:37.323Z,622
2022-09-05T13:00:51.079Z,743
2022-09-05T13:03:10.213Z,705
2022-09-05T13:03:10.367Z,626
2022-09-05T13:04:19.513Z,722
2022-09-05T13:06:19.428Z,681
2022-09-05T13:08:17.549Z,698
2022-09-05T13:11:25.456Z,739
2022-09-05T13:14:51.332Z,729
2022-09-05T13:14:51.690Z,711
2022-09-05T13:16:23.416Z,732
2022-09-05T13:18:17.676Z,835
2022-09-05T13:20:17.503Z,759
2022-09-05T13:22:18.296Z,728
2022-09-05T13:24:18.104Z,683
2022-09-05T13:26:17.926Z,650
2022-09-05T13:28:17.940Z,768
2022-09-05T13:30:41.708Z,695
2022-09-05T13:35:38.085Z,682
2022-09-05T13:37:57.062Z,724
2022-09-05T13:38:09.750Z,729
2022-09-05T13:38:42.257Z,750
2022-09-05T13:40:17.919Z,661
2022-09-05T13:42:22.812Z,665
2022-09-05T13:44:25.848Z,652
2022-09-05T13:46:17.806Z,695
2022-09-05T13:48:17.385Z,625
2022-09-05T13:50:18.159Z,763
2022-09-05T13:52:18.283Z,887
2022-09-05T13:54:18.102Z,876
2022-09-05T13:56:17.906Z,787
2022-09-05T13:58:17.768Z,745
2022-09-05T14:00:27.435Z,717
2022-09-05T14:02:25.293Z,846
2022-09-05T14:05:05.042Z,790
2022-09-05T14:06:45.355Z,760
2022-09-05T14:08:18.285Z,688
2022-09-05T14:10:23.263Z,631
2022-09-05T14:12:17.884Z,686
2022-09-05T14:15:08.025Z,602
2022-09-05T14:16:17.925Z,596
2022-09-05T14:18:20.875Z,623
2022-09-05T14:20:17.539Z,592
2022-09-05T14:22:22.163Z,582
2022-09-05T14:24:17.511Z,645
2022-09-05T14:26:18.067Z,609
2022-09-05T14:28:17.539Z,581
2022-09-05T14:30:54.138Z,508
2022-09-05T14:33:59.654Z,591
2022-09-05T14:37:47.244Z,600
2022-09-05T14:37:48.006Z,620
2022-09-05T14:38:18.262Z,612
2022-09-05T14:40:19.302Z,566
2022-09-05T14:42:17.858Z,583
2022-09-05T14:44:18.092Z,635
2022-09-05T14:46:17.984Z,633
2022-09-05T14:48:17.907Z,578
2022-09-05T14:50:20.730Z,602
2022-09-05T14:52:17.779Z,673
2022-09-05T14:56:51.641Z,613
2022-09-05T15:02:36.651Z,568
2022-09-05T15:02:46.966Z,496
2022-09-05T15:02:47.169Z,620
2022-09-05T15:04:34.079Z,549
2022-09-05T15:06:17.669Z,576
2022-09-05T15:09:21.404Z,617
2022-09-05T15:11:25.087Z,460
2022-09-05T15:12:38.493Z,524
2022-09-05T15:14:17.460Z,550
2022-09-05T15:16:18.262Z,519
2022-09-05T15:18:18.255Z,652
2022-09-05T15:20:18.068Z,583
2022-09-05T15:22:17.813Z,560
2022-09-05T15:24:18.067Z,501
2022-09-05T15:26:17.998Z,586
2022-09-05T15:28:17.546Z,646
2022-09-05T15:30:18.358Z,499
2022-09-05T15:32:18.092Z,594
2022-09-05T15:34:17.542Z,636
2022-09-05T15:36:18.305Z,575
2022-09-05T15:38:18.120Z,539
2022-09-05T15:40:21.811Z,560
2022-09-05T15:42:18.043Z,585
2022-09-05T15:44:17.788Z,625
2022-09-05T15:46:17.671Z,603
2022-09-05T15:48:18.209Z,573
2022-09-05T15:50:19.104Z,600
2022-09-05T15:52:18.230Z,639
2022-09-05T15:54:25.674Z,621
2022-09-05T15:56:17.451Z,560
2022-09-05T15:58:17.953Z,564
2022-09-05T16:00:17.755Z,565
2022-09-05T16:02:17.825Z,612
2022-09-05T16:04:59.070Z,599
2022-09-05T16:08:26.391Z,576
2022-09-05T16:10:32.839Z,539
2022-09-05T16:10:32.905Z,550
2022-09-05T16:12:19.524Z,645
2022-09-05T16:14:17.833Z,676
2022-09-05T16:18:53.089Z,661
2022-09-05T16:22:19.413Z,628
2022-09-05T16:23:21.513Z,635
2022-09-05T16:23:22.275Z,631
2022-09-05T16:24:18.554Z,633
2022-09-05T16:26:19.201Z,603
2022-09-05T16:28:17.984Z,657
2022-09-05T16:30:17.892Z,677
2022-09-05T16:32:18.109Z,608
2022-09-05T16:34:17.915Z,698
2022-09-05T16:36:17.835Z,659
2022-09-05T16:38:18.852Z,747
2022-09-05T16:40:22.427Z,764
2022-09-05T16:42:18.241Z,680
2022-09-05T16:44:17.951Z,708
2022-09-05T16:46:17.826Z,750
2022-09-05T16:48:17.640Z,747
2022-09-05T16:50:17.387Z,784
2022-09-05T16:52:18.109Z,751
2022-09-05T16:54:17.418Z,794
2022-09-05T16:56:18.272Z,714
2022-09-05T16:58:18.048Z,742
2022-09-05T17:00:17.844Z,674
2022-09-05T17:02:18.436Z,718
2022-09-05T17:04:18.323Z,757
2022-09-05T17:06:25.968Z,726
2022-09-05T17:08:18.290Z,791
2022-09-05T17:10:18.062Z,728
2022-09-05T17:12:21.533Z,721
2022-09-05T17:14:18.016Z,756
2022-09-05T17:16:18.104Z,671
2022-09-05T17:18:23.729Z,744
2022-09-05T17:20:18.128Z,777
2022-09-05T17:23:23.953Z,738
2022-09-05T17:26:42.789Z,733
2022-09-05T17:29:22.327Z,745
2022-09-05T17:30:20.161Z,777
2022-09-05T17:32:18.840Z,781
2022-09-05T17:34:17.891Z,601
2022-09-05T17:36:17.892Z,629
2022-09-05T17:38:17.705Z,743
2022-09-05T17:40:17.699Z,804
2022-09-05T17:42:17.981Z,683
2022-09-05T17:44:17.857Z,712
2022-09-05T17:46:17.637Z,799
2022-09-05T17:48:17.417Z,774
2022-09-05T17:50:18.228Z,782
2022-09-05T17:52:23.038Z,787
2022-09-05T17:54:17.846Z,680
2022-09-05T17:56:17.638Z,713
2022-09-05T17:58:17.338Z,718
2022-09-05T18:00:18.201Z,796
2022-09-05T18:02:18.362Z,748
2022-09-05T18:04:18.529Z,714
2022-09-05T18:06:17.344Z,688
2022-09-05T18:08:21.079Z,688
2022-09-05T18:10:27.336Z,739
2022-09-05T18:12:28.706Z,655
2022-09-05T18:14:24.712Z,792
2022-09-05T18:16:17.559Z,783
2022-09-05T18:18:38.441Z,769
2022-09-05T18:20:18.428Z,703
2022-09-05T18:22:17.650Z,716
2022-09-05T18:24:17.452Z,761
2022-09-05T18:26:18.186Z,696
2022-09-05T18:28:17.542Z,755
2022-09-05T18:30:17.601Z,778
2022-09-05T18:32:17.522Z,757
2022-09-05T18:34:17.440Z,736
2022-09-05T18:36:17.395Z,726
2022-09-05T18:38:18.317Z,746
2022-09-05T18:40:36.633Z,725
2022-09-05T18:42:26.794Z,675
2022-09-05T18:44:20.151Z,720
2022-09-05T18:46:23.398Z,715
2022-09-05T18:48:17.397Z,756
2022-09-05T18:50:24.484Z,695
2022-09-05T18:52:22.146Z,683
2022-09-05T18:54:20.165Z,711
2022-09-05T18:56:19.684Z,776
2022-09-05T18:58:17.463Z,701
2022-09-05T19:00:17.422Z,735
2022-09-05T19:02:26.867Z,694
2022-09-05T19:04:33.163Z,730
2022-09-05T19:06:35.512Z,692
2022-09-05T19:08:36.695Z,702
2022-09-05T19:10:35.283Z,711
2022-09-05T19:12:32.131Z,675
2022-09-05T19:14:25.827Z,686
2022-09-05T19:16:34.921Z,700
2022-09-05T19:18:25.965Z,675
2022-09-05T19:20:32.340Z,696
2022-09-05T19:22:42.329Z,663
2022-09-05T19:24:17.442Z,666
2022-09-05T19:26:18.319Z,694
2022-09-05T19:33:31.374Z,716
2022-09-05T19:36:47.548Z,584
2022-09-05T19:36:47.845Z,612
2022-09-05T19:36:48.271Z,586
2022-09-05T19:37:00.983Z,615
2022-09-05T19:38:17.733Z,596
2022-09-05T19:42:00.348Z,581
2022-09-05T19:45:59.179Z,551
2022-09-05T19:47:31.841Z,539
2022-09-05T19:47:45.709Z,516
2022-09-05T19:48:18.573Z,539
2022-09-05T19:50:17.758Z,561
2022-09-05T19:52:17.647Z,582
2022-09-05T19:54:17.386Z,553
2022-09-05T19:56:18.171Z,525
2022-09-05T19:58:19.657Z,537
2022-09-05T20:00:17.696Z,525
2022-09-05T20:02:20.123Z,565
2022-09-05T20:04:18.113Z,526
2022-09-05T20:06:26.751Z,539
2022-09-05T20:08:17.417Z,507
2022-09-05T20:10:18.148Z,535
2022-09-05T20:12:20.844Z,579
2022-09-05T20:14:18.218Z,496
2022-09-05T20:16:17.983Z,515
2022-09-05T20:18:18.156Z,459
2022-09-05T20:20:17.418Z,573
2022-09-05T20:22:46.902Z,526
2022-09-05T20:24:17.589Z,508
2022-09-05T20:26:18.367Z,563
2022-09-05T20:28:18.206Z,540
2022-09-05T20:30:18.052Z,619
2022-09-05T20:32:17.907Z,527
2022-09-05T20:34:19.268Z,587
2022-09-05T20:38:00.651Z,536
2022-09-05T20:43:12.646Z,566
2022-09-05T20:43:13.433Z,550
2022-09-05T20:43:25.598Z,567
2022-09-05T20:44:19.318Z,601
2022-09-05T20:46:45.002Z,539
2022-09-05T20:50:44.477Z,597
2022-09-05T20:54:10.820Z,567
2022-09-05T20:54:11.718Z,499
2022-09-05T20:54:34.467Z,512
2022-09-05T20:56:23.409Z,529
2022-09-05T20:58:18.222Z,534
2022-09-05T21:00:18.074Z,546
2022-09-05T21:02:17.708Z,491
2022-09-05T21:04:17.575Z,472
2022-09-05T21:06:17.370Z,508
2022-09-05T21:08:18.220Z,492
2022-09-05T21:10:17.773Z,546
2022-09-05T21:12:20.436Z,538
2022-09-05T21:14:17.457Z,537
2022-09-05T21:16:18.265Z,581
2022-09-05T21:18:18.295Z,614
2022-09-05T21:20:18.101Z,541
2022-09-05T21:22:17.882Z,537
2022-09-05T21:24:18.842Z,602
2022-09-05T21:26:18.329Z,513
2022-09-05T21:28:18.075Z,529
2022-09-05T21:30:17.817Z,586
2022-09-05T21:32:18.002Z,590
2022-09-05T21:34:17.454Z,528
2022-09-05T21:36:17.522Z,590
2022-09-05T21:38:18.343Z,555
2022-09-05T21:40:18.439Z,522
2022-09-05T21:43:23.227Z,530
2022-09-05T21:46:52.151Z,481
2022-09-05T21:47:45.936Z,574
2022-09-05T21:48:18.029Z,543
2022-09-05T21:50:30.568Z,480
2022-09-05T21:52:17.646Z,546
2022-09-05T21:56:50.293Z,517
2022-09-05T21:59:15.719Z,542
2022-09-05T21:59:15.966Z,536
2022-09-05T22:00:17.849Z,529
2022-09-05T22:02:17.771Z,540
2022-09-05T22:04:17.740Z,581
2022-09-05T22:06:17.737Z,500
2022-09-05T22:08:18.187Z,598
2022-09-05T22:10:18.307Z,598
2022-09-05T22:12:30.509Z,618
2022-09-05T22:14:17.758Z,603
2022-09-05T22:16:17.521Z,650
2022-09-05T22:18:18.366Z,661
2022-09-05T22:20:18.154Z,665
2022-09-05T22:22:21.276Z,693
2022-09-05T22:24:17.918Z,682
2022-09-05T22:26:18.232Z,732
2022-09-05T22:28:17.905Z,681
2022-09-05T22:30:17.671Z,709
2022-09-05T22:32:17.533Z,638
2022-09-05T22:34:17.744Z,717
2022-09-05T22:36:17.616Z,786
2022-09-05T22:38:19.981Z,738
2022-09-05T22:40:18.335Z,723
2022-09-05T22:42:17.525Z,763
2022-09-05T22:44:17.322Z,769
2022-09-05T22:46:18.375Z,755
2022-09-05T22:48:18.289Z,768
2022-09-05T22:50:18.103Z,823
2022-09-05T22:52:18.000Z,755
2022-09-05T22:54:17.817Z,839
2022-09-05T22:56:17.551Z,832
2022-09-05T22:58:19.869Z,707
2022-09-05T23:00:17.863Z,768
2022-09-05T23:02:21.074Z,733
2022-09-05T23:04:18.195Z,725
2022-09-05T23:06:18.014Z,726
2022-09-05T23:08:17.532Z,785
2022-09-05T23:10:18.260Z,843
2022-09-05T23:12:18.375Z,780
2022-09-05T23:14:17.419Z,859
2022-09-05T23:16:18.350Z,737
2022-09-05T23:18:17.933Z,832
2022-09-05T23:20:18.001Z,799
2022-09-05T23:22:17.825Z,801
2022-09-05T23:24:17.938Z,832
2022-09-05T23:26:17.686Z,761
2022-09-05T23:28:17.794Z,847
2022-09-05T23:30:17.925Z,692
2022-09-05T23:32:18.147Z,763
2022-09-05T23:34:17.916Z,829
2022-09-05T23:36:21.440Z,850
2022-09-05T23:38:18.233Z,767
2022-09-05T23:40:21.168Z,805
2022-09-05T23:42:17.345Z,859
2022-09-05T23:44:17.407Z,812
2022-09-05T23:46:18.223Z,799
2022-09-05T23:48:18.171Z,848
2022-09-05T23:50:18.003Z,803
2022-09-05T23:52:17.773Z,864
2022-09-05T23:54:17.643Z,861
2022-09-05T23:56:17.523Z,792
2022-09-05T23:58:18.357Z,825
